createdAt,value
2023-12-30T00:00:18.433Z,99146.84
2023-12-30T00:02:49.304Z,99138.91
2023-12-30T00:05:19.235Z,99138.34
2023-12-30T00:07:47.877Z,99141.34
2023-12-30T00:10:16.671Z,99136.41
2023-12-30T00:12:45.041Z,99131.44
2023-12-30T00:15:13.649Z,99139.13
2023-12-30T00:17:42.023Z,99147.34
2023-12-30T00:20:11.220Z,99140.47
2023-12-30T00:22:41.027Z,99139.09
2023-12-30T00:25:11.587Z,99145.13
2023-12-30T00:27:41.875Z,99142.66
2023-12-30T00:30:14.781Z,99148.94
2023-12-30T00:32:43.416Z,99133.81
2023-12-30T00:35:12.278Z,99147.00
2023-12-30T00:37:41.989Z,99142.03
2023-12-30T00:40:12.469Z,99145.88
2023-12-30T00:42:40.911Z,99130.78
2023-12-30T00:45:10.489Z,99142.25
2023-12-30T00:47:39.302Z,99140.59
2023-12-30T00:50:08.497Z,99143.59
2023-12-30T00:52:36.839Z,99126.84
2023-12-30T00:55:07.418Z,99145.75
2023-12-30T00:57:36.193Z,99139.72
2023-12-30T01:00:05.979Z,99132.59
2023-12-30T01:02:34.277Z,99141.06
2023-12-30T01:05:02.820Z,99142.19
2023-12-30T01:07:31.394Z,99141.63
2023-12-30T01:09:59.798Z,99137.22
2023-12-30T01:12:29.495Z,99139.41
2023-12-30T01:14:57.909Z,99151.44
2023-12-30T01:17:26.362Z,99152.56
2023-12-30T01:19:54.778Z,99152.56
2023-12-30T01:22:23.221Z,99151.72
2023-12-30T01:24:51.606Z,99170.91
2023-12-30T01:27:20.010Z,99151.72
2023-12-30T01:29:49.711Z,99159.94
2023-12-30T01:32:18.122Z,99159.66
2023-12-30T01:34:46.476Z,99158.59
2023-12-30T01:37:14.865Z,99162.44
2023-12-30T01:39:43.215Z,99165.50
2023-12-30T01:42:11.794Z,99166.63
2023-12-30T01:44:40.303Z,99166.91
2023-12-30T01:47:10.300Z,99160.06
2023-12-30T01:49:38.924Z,99152.97
2023-12-30T01:52:08.514Z,99147.00
2023-12-30T01:54:37.214Z,99147.31
2023-12-30T01:57:06.734Z,99127.31
2023-12-30T01:59:37.568Z,99130.13
2023-12-30T02:02:06.593Z,99123.59
2023-12-30T02:04:36.658Z,99136.25
2023-12-30T02:07:05.522Z,99131.88
2023-12-30T02:09:33.946Z,99124.72
2023-12-30T02:12:02.541Z,99129.97
2023-12-30T02:14:32.706Z,99126.16
2023-12-30T02:17:01.672Z,99123.94
2023-12-30T02:19:30.044Z,99127.56
2023-12-30T02:21:59.771Z,99115.44
2023-12-30T02:24:29.520Z,99116.78
2023-12-30T02:26:58.328Z,99113.47
2023-12-30T02:29:26.648Z,99102.41
2023-12-30T02:31:55.024Z,99119.44
2023-12-30T02:34:23.499Z,99110.03
2023-12-30T02:36:52.024Z,99104.22
2023-12-30T02:39:20.417Z,99108.03
2023-12-30T02:41:50.106Z,99111.03
2023-12-30T02:44:20.353Z,99105.47
2023-12-30T02:46:48.804Z,99099.06
2023-12-30T02:49:17.318Z,99095.47
2023-12-30T02:51:45.795Z,99096.50
2023-12-30T02:54:14.140Z,99088.44
2023-12-30T02:56:42.521Z,99087.84
2023-12-30T02:59:12.368Z,99089.97
2023-12-30T03:01:40.873Z,99085.78
2023-12-30T03:04:09.424Z,99092.09
2023-12-30T03:06:38.458Z,99084.31
2023-12-30T03:09:06.817Z,99094.72
2023-12-30T03:11:35.203Z,99090.00
2023-12-30T03:14:03.750Z,99083.59
2023-12-30T03:16:34.707Z,99086.59
2023-12-30T03:19:03.511Z,99091.25
2023-12-30T03:21:31.968Z,99090.66
2023-12-30T03:24:00.273Z,99079.06
2023-12-30T03:26:28.618Z,99087.03
2023-12-30T03:28:56.960Z,99092.25
2023-12-30T03:31:26.975Z,99098.03
2023-12-30T03:33:58.434Z,99078.38
2023-12-30T03:36:26.935Z,99097.06
2023-12-30T03:38:56.070Z,99100.31
2023-12-30T03:41:26.198Z,99098.03
2023-12-30T03:43:54.533Z,99101.56
2023-12-30T03:46:23.004Z,99097.91
2023-12-30T03:48:51.556Z,99091.81
2023-12-30T03:51:21.397Z,99079.06
2023-12-30T03:53:52.093Z,99101.69
2023-12-30T03:56:20.508Z,99089.22
2023-12-30T03:58:48.938Z,99101.63
2023-12-30T04:01:17.380Z,99097.97
2023-12-30T04:03:45.836Z,99091.84
2023-12-30T04:06:24.308Z,99096.25
2023-12-30T04:08:52.650Z,99103.97
2023-12-30T04:11:21.078Z,99100.38
2023-12-30T04:13:49.446Z,99110.59
2023-12-30T04:16:17.936Z,99124.41
2023-12-30T04:18:46.330Z,99131.59
2023-12-30T04:21:14.725Z,99134.34
2023-12-30T04:23:45.054Z,99131.88
2023-12-30T04:26:13.393Z,99137.69
2023-12-30T04:28:41.830Z,99137.19
2023-12-30T04:31:10.222Z,99144.63
2023-12-30T04:33:38.783Z,99147.69
2023-12-30T04:36:07.826Z,99141.66
2023-12-30T04:38:36.228Z,99138.34
2023-12-30T04:41:06.362Z,99137.81
2023-12-30T04:43:34.888Z,99142.53
2023-12-30T04:46:03.713Z,99141.69
2023-12-30T04:48:32.328Z,99148.59
2023-12-30T04:51:00.696Z,99151.34
2023-12-30T04:53:29.051Z,99158.81
2023-12-30T04:55:57.448Z,99151.63
2023-12-30T04:58:27.299Z,99155.50
2023-12-30T05:00:55.737Z,99159.09
2023-12-30T05:03:24.187Z,99164.91
2023-12-30T05:05:52.780Z,99161.59
2023-12-30T05:08:21.234Z,99158.31
2023-12-30T05:10:49.542Z,99168.53
2023-12-30T05:13:18.063Z,99170.78
2023-12-30T05:15:49.760Z,99173.84
2023-12-30T05:18:18.583Z,99164.72
2023-12-30T05:20:46.984Z,99166.66
2023-12-30T05:23:15.996Z,99182.13
2023-12-30T05:25:44.356Z,99190.41
2023-12-30T05:28:12.891Z,99197.88
2023-12-30T05:30:41.387Z,99194.56
2023-12-30T05:33:11.267Z,99192.91
2023-12-30T05:35:42.155Z,99195.97
2023-12-30T05:38:13.652Z,99194.63
2023-12-30T05:40:42.440Z,99203.72
2023-12-30T05:43:10.822Z,99204.84
2023-12-30T05:45:40.249Z,99200.44
2023-12-30T05:48:10.915Z,99210.97
2023-12-30T05:50:39.450Z,99212.91
2023-12-30T05:53:07.775Z,99214.81
2023-12-30T05:55:36.200Z,99204.06
2023-12-30T05:58:05.087Z,99216.22
2023-12-30T06:00:33.596Z,99218.47
2023-12-30T06:03:02.407Z,99214.34
2023-12-30T06:05:32.522Z,99211.88
2023-12-30T06:08:00.937Z,99211.34
2023-12-30T06:10:29.340Z,99216.34
2023-12-30T06:12:57.761Z,99212.75
2023-12-30T06:15:27.151Z,99218.53
2023-12-30T06:17:55.620Z,99210.25
2023-12-30T06:20:24.513Z,99222.13
2023-12-30T06:22:54.239Z,99235.94
2023-12-30T06:25:22.702Z,99238.44
2023-12-30T06:27:51.189Z,99239.81
2023-12-30T06:30:19.635Z,99238.69
2023-12-30T06:32:48.951Z,99245.03
2023-12-30T06:35:17.505Z,99248.34
2023-12-30T06:37:45.874Z,99252.75
2023-12-30T06:40:16.249Z,99254.69
2023-12-30T06:42:46.267Z,99262.66
2023-12-30T06:45:14.712Z,99261.03
2023-12-30T06:47:44.903Z,99257.75
2023-12-30T06:50:14.604Z,99262.97
2023-12-30T06:52:42.976Z,99269.84
2023-12-30T06:55:20.737Z,99269.25
2023-12-30T06:57:55.870Z,99276.66
2023-12-30T07:00:24.425Z,99285.75
2023-12-30T07:02:52.814Z,99287.34
2023-12-30T07:05:21.223Z,99286.47
2023-12-30T07:07:49.612Z,99295.25
2023-12-30T07:10:18.539Z,99306.78
2023-12-30T07:12:46.999Z,99297.38
2023-12-30T07:15:17.117Z,99315.00
2023-12-30T07:17:47.173Z,99315.78
2023-12-30T07:20:15.952Z,99317.94
2023-12-30T07:22:44.298Z,99327.34
2023-12-30T07:25:13.475Z,99325.09
2023-12-30T07:27:41.819Z,99327.56
2023-12-30T07:30:11.222Z,99333.09
2023-12-30T07:32:41.210Z,99338.63
2023-12-30T07:35:10.645Z,99337.78
2023-12-30T07:37:39.194Z,99345.25
2023-12-30T07:40:10.186Z,99349.44
2023-12-30T07:42:38.670Z,99353.59
2023-12-30T07:45:09.011Z,99355.00
2023-12-30T07:47:37.896Z,99349.75
2023-12-30T07:50:11.717Z,99348.38
2023-12-30T07:52:40.394Z,99344.81
2023-12-30T07:55:10.052Z,99345.94
2023-12-30T07:57:39.315Z,99338.22
2023-12-30T08:00:09.809Z,99344.88
2023-12-30T08:02:38.543Z,99342.41
2023-12-30T08:05:09.683Z,99342.97
2023-12-30T08:07:37.161Z,99348.19
2023-12-30T08:10:06.733Z,99343.81
2023-12-30T08:12:37.039Z,99351.25
2023-12-30T08:15:07.077Z,99352.88
2023-12-30T08:17:35.558Z,99353.72
2023-12-30T08:20:04.164Z,99358.16
2023-12-30T08:22:33.963Z,99357.84
2023-12-30T08:25:02.465Z,99358.38
2023-12-30T08:27:30.814Z,99355.03
2023-12-30T08:29:59.171Z,99348.13
2023-12-30T08:32:27.581Z,99362.69
2023-12-30T08:34:56.449Z,99365.41
2023-12-30T08:37:26.010Z,99361.50
2023-12-30T08:39:55.901Z,99375.81
2023-12-30T08:42:24.252Z,99378.25
2023-12-30T08:44:52.612Z,99372.06
2023-12-30T08:47:21.053Z,99384.16
2023-12-30T08:49:49.495Z,99378.84
2023-12-30T08:52:17.986Z,99379.28
2023-12-30T08:54:46.411Z,99384.50
2023-12-30T08:57:16.195Z,99377.25
2023-12-30T08:59:44.549Z,99377.47
2023-12-30T09:02:13.420Z,99381.06
2023-12-30T09:04:41.803Z,99369.69
2023-12-30T09:07:10.236Z,99393.19
2023-12-30T09:09:38.985Z,99385.72
2023-12-30T09:12:08.571Z,99389.31
2023-12-30T09:14:38.342Z,99386.25
2023-12-30T09:17:07.049Z,99388.97
2023-12-30T09:19:35.527Z,99378.66
2023-12-30T09:22:04.052Z,99377.78
2023-12-30T09:24:32.409Z,99372.78
2023-12-30T09:27:00.797Z,99385.19
2023-12-30T09:29:29.152Z,99383.78
2023-12-30T09:31:58.928Z,99381.53
2023-12-30T09:34:34.282Z,99380.66
2023-12-30T09:37:10.341Z,99367.63
2023-12-30T09:39:38.717Z,99377.28
2023-12-30T09:42:08.084Z,99370.31
2023-12-30T09:44:37.328Z,99364.72
2023-12-30T09:47:11.640Z,99370.19
2023-12-30T09:49:42.369Z,99377.91
2023-12-30T09:52:10.824Z,99377.59
2023-12-30T09:54:48.320Z,99370.97
2023-12-30T09:57:18.296Z,99375.59
2023-12-30T09:59:49.410Z,99361.13
2023-12-30T10:02:19.171Z,99366.59
2023-12-30T10:04:50.779Z,99367.69
2023-12-30T10:07:19.544Z,99372.13
2023-12-30T10:09:51.682Z,99373.16
2023-12-30T10:12:20.571Z,99375.34
2023-12-30T10:14:48.980Z,99385.00
2023-12-30T10:17:19.740Z,99378.03
2023-12-30T10:19:49.387Z,99381.00
2023-12-30T10:22:18.104Z,99371.28
2023-12-30T10:24:46.458Z,99384.03
2023-12-30T10:27:14.930Z,99390.09
2023-12-30T10:29:51.031Z,99395.31
2023-12-30T10:32:24.620Z,99390.59
2023-12-30T10:34:53.212Z,99393.31
2023-12-30T10:37:32.110Z,99388.22
2023-12-30T10:40:03.127Z,99393.56
2023-12-30T10:42:31.656Z,99398.56
2023-12-30T10:45:00.317Z,99400.25
2023-12-30T10:47:29.887Z,99395.28
2023-12-30T10:50:06.253Z,99393.66
2023-12-30T10:52:46.105Z,99392.56
2023-12-30T10:55:19.126Z,99390.44
2023-12-30T10:57:54.847Z,99388.34
2023-12-30T11:00:23.787Z,99375.00
2023-12-30T11:02:53.717Z,99382.81
2023-12-30T11:05:29.679Z,99383.13
2023-12-30T11:07:59.914Z,99386.81
2023-12-30T11:10:28.875Z,99371.00
2023-12-30T11:12:58.788Z,99371.59
2023-12-30T11:15:30.285Z,99371.16
2023-12-30T11:17:59.605Z,99368.19
2023-12-30T11:20:31.477Z,99355.44
2023-12-30T11:23:04.100Z,99366.94
2023-12-30T11:25:42.681Z,99360.81
2023-12-30T11:28:19.796Z,99357.09
2023-12-30T11:30:59.301Z,99357.69
2023-12-30T11:33:27.861Z,99358.09
2023-12-30T11:35:57.171Z,99360.16
2023-12-30T11:38:32.010Z,99349.38
2023-12-30T11:41:02.407Z,99365.72
2023-12-30T11:43:30.913Z,99357.28
2023-12-30T11:46:01.325Z,99362.53
2023-12-30T11:48:29.899Z,99355.84
2023-12-30T11:50:58.277Z,99360.03
2023-12-30T11:53:28.144Z,99358.31
2023-12-30T11:55:56.805Z,99350.44
2023-12-30T11:58:25.355Z,99333.25
2023-12-30T12:00:53.810Z,99342.28
2023-12-30T12:03:22.180Z,99340.16
2023-12-30T12:05:51.539Z,99346.53
2023-12-30T12:08:19.979Z,99351.63
2023-12-30T12:10:49.804Z,99352.16
2023-12-30T12:13:23.017Z,99329.13
2023-12-30T12:15:56.039Z,99337.00
2023-12-30T12:18:25.660Z,99336.25
2023-12-30T12:20:55.013Z,99333.47
2023-12-30T12:23:25.639Z,99333.41
2023-12-30T12:25:55.572Z,99333.97
2023-12-30T12:28:24.849Z,99326.31
2023-12-30T12:30:53.448Z,99333.38
2023-12-30T12:33:22.091Z,99334.34
2023-12-30T12:35:50.969Z,99337.97
2023-12-30T12:38:19.793Z,99330.72
2023-12-30T12:40:48.302Z,99327.50
2023-12-30T12:43:18.420Z,99320.31
2023-12-30T12:45:46.844Z,99319.84
2023-12-30T12:48:17.396Z,99332.22
2023-12-30T12:50:46.300Z,99336.41
2023-12-30T12:53:14.959Z,99330.13
2023-12-30T12:55:43.344Z,99325.00
2023-12-30T12:58:11.724Z,99330.47
2023-12-30T13:00:41.953Z,99339.41
2023-12-30T13:03:10.555Z,99338.53
2023-12-30T13:05:39.222Z,99331.25
2023-12-30T13:08:09.829Z,99335.88
2023-12-30T13:10:42.733Z,99333.59
2023-12-30T13:13:11.395Z,99336.56
2023-12-30T13:15:41.273Z,99328.09
2023-12-30T13:18:14.355Z,99332.53
2023-12-30T13:20:46.392Z,99329.69
2023-12-30T13:23:16.042Z,99320.97
2023-12-30T13:25:45.422Z,99332.28
2023-12-30T13:28:15.612Z,99326.44
2023-12-30T13:30:46.068Z,99314.53
2023-12-30T13:33:18.210Z,99312.56
2023-12-30T13:35:46.860Z,99309.19
2023-12-30T13:38:16.623Z,99325.13
2023-12-30T13:40:47.155Z,99316.72
2023-12-30T13:43:17.784Z,99320.72
2023-12-30T13:45:48.047Z,99329.13
2023-12-30T13:48:47.246Z,99325.84
2023-12-30T13:51:17.949Z,99332.31
2023-12-30T13:53:46.679Z,99336.28
2023-12-30T13:56:21.405Z,99338.63
2023-12-30T13:58:51.737Z,99332.97
2023-12-30T14:01:23.888Z,99345.56
2023-12-30T14:03:53.850Z,99347.09
2023-12-30T14:06:29.836Z,99352.72
2023-12-30T14:08:59.714Z,99356.94
2023-12-30T14:11:34.402Z,99360.53
2023-12-30T14:14:05.650Z,99356.03
2023-12-30T14:16:35.882Z,99348.44
2023-12-30T14:19:04.433Z,99344.78
2023-12-30T14:21:35.142Z,99354.72
2023-12-30T14:24:04.222Z,99350.00
2023-12-30T14:26:32.745Z,99355.53
2023-12-30T14:29:01.401Z,99352.78
2023-12-30T14:31:29.855Z,99348.34
2023-12-30T14:33:59.987Z,99349.47
2023-12-30T14:36:28.556Z,99349.47
2023-12-30T14:38:57.444Z,99348.13
2023-12-30T14:41:25.796Z,99345.69
2023-12-30T14:43:54.290Z,99339.38
2023-12-30T14:46:22.917Z,99344.19
2023-12-30T14:48:51.638Z,99347.06
2023-12-30T14:51:21.470Z,99343.03
2023-12-30T14:53:50.019Z,99340.13
2023-12-30T14:56:19.905Z,99346.03
2023-12-30T14:58:49.008Z,99347.84
2023-12-30T15:01:17.933Z,99347.38
2023-12-30T15:03:46.404Z,99336.69
2023-12-30T15:06:15.217Z,99341.22
2023-12-30T15:08:44.977Z,99340.25
2023-12-30T15:11:13.358Z,99336.19
2023-12-30T15:13:41.760Z,99335.22
2023-12-30T15:16:10.194Z,99337.84
2023-12-30T15:18:38.676Z,99334.09
2023-12-30T15:21:07.540Z,99335.03
2023-12-30T15:23:35.996Z,99340.94
2023-12-30T15:26:05.976Z,99329.97
2023-12-30T15:28:34.388Z,99329.81
2023-12-30T15:31:04.117Z,99341.53
2023-12-30T15:33:33.005Z,99342.13
2023-12-30T15:36:04.053Z,99333.34
2023-12-30T15:38:33.265Z,99327.34
2023-12-30T15:41:01.910Z,99332.41
2023-12-30T15:43:32.914Z,99332.75
2023-12-30T15:46:01.604Z,99340.28
2023-12-30T15:48:30.216Z,99337.81
2023-12-30T15:50:58.815Z,99336.22
2023-12-30T15:53:27.230Z,99335.19
2023-12-30T15:55:55.952Z,99334.38
2023-12-30T15:58:24.343Z,99338.31
2023-12-30T16:00:54.199Z,99343.03
2023-12-30T16:03:22.622Z,99340.31
2023-12-30T16:05:51.128Z,99343.16
2023-12-30T16:08:19.549Z,99347.56
2023-12-30T16:10:47.963Z,99348.72
2023-12-30T16:13:16.387Z,99344.59
2023-12-30T16:15:46.213Z,99342.41
2023-12-30T16:18:16.143Z,99341.88
2023-12-30T16:20:44.563Z,99334.97
2023-12-30T16:23:15.272Z,99344.66
2023-12-30T16:25:46.139Z,99340.84
2023-12-30T16:28:17.482Z,99345.25
2023-12-30T16:30:49.130Z,99339.47
2023-12-30T16:33:23.096Z,99346.41
2023-12-30T16:35:53.984Z,99345.84
2023-12-30T16:38:24.363Z,99350.28
2023-12-30T16:40:55.231Z,99350.06
2023-12-30T16:43:25.665Z,99358.06
2023-12-30T16:45:55.312Z,99358.91
2023-12-30T16:48:25.273Z,99363.66
2023-12-30T16:50:53.885Z,99366.13
2023-12-30T16:53:22.361Z,99366.69
2023-12-30T16:55:51.936Z,99364.50
2023-12-30T16:58:22.409Z,99360.09
2023-12-30T17:03:25.702Z,99362.59
2023-12-30T17:05:55.218Z,99362.06
2023-12-30T17:08:24.247Z,99358.75
2023-12-30T17:10:53.557Z,99374.50
2023-12-30T17:13:31.180Z,99377.81
2023-12-30T17:16:03.776Z,99380.03
2023-12-30T17:18:33.689Z,99375.59
2023-12-30T17:21:03.645Z,99386.38
2023-12-30T17:23:31.999Z,99386.66
2023-12-30T17:26:02.439Z,99389.16
2023-12-30T17:28:30.894Z,99393.28
2023-12-30T17:30:59.427Z,99393.59
2023-12-30T17:33:27.887Z,99390.84
2023-12-30T17:35:57.802Z,99401.88
2023-12-30T17:38:26.340Z,99393.34
2023-12-30T17:40:54.935Z,99384.53
2023-12-30T17:43:23.359Z,99394.75
2023-12-30T17:45:51.809Z,99394.19
2023-12-30T17:48:20.444Z,99390.88
2023-12-30T17:50:48.902Z,99392.28
2023-12-30T17:53:18.647Z,99395.28
2023-12-30T17:55:47.528Z,99397.50
2023-12-30T17:58:17.287Z,99396.13
2023-12-30T18:00:46.260Z,99396.69
2023-12-30T18:03:15.281Z,99399.16
2023-12-30T18:05:44.561Z,99401.66
2023-12-30T18:08:14.156Z,99412.38
2023-12-30T18:10:45.083Z,99397.50
2023-12-30T18:13:14.479Z,99407.16
2023-12-30T18:15:43.917Z,99412.41
2023-12-30T18:18:14.983Z,99409.09
2023-12-30T18:20:45.364Z,99410.47
2023-12-30T18:23:15.602Z,99417.34
2023-12-30T18:25:45.929Z,99418.72
2023-12-30T18:28:15.204Z,99416.25
2023-12-30T18:30:46.023Z,99417.88
2023-12-30T18:33:15.897Z,99412.66
2023-12-30T18:35:45.026Z,99426.97
2023-12-30T18:38:13.798Z,99431.09
2023-12-30T18:40:46.095Z,99420.66
2023-12-30T18:43:15.540Z,99428.09
2023-12-30T18:45:47.968Z,99422.88
2023-12-30T18:48:18.454Z,99418.44
2023-12-30T18:50:49.281Z,99416.22
2023-12-30T18:53:19.307Z,99415.97
2023-12-30T18:55:52.204Z,99418.16
2023-12-30T18:58:22.622Z,99409.91
2023-12-30T19:00:52.928Z,99403.84
2023-12-30T19:03:22.755Z,99404.41
2023-12-30T19:05:52.820Z,99401.66
2023-12-30T19:08:22.690Z,99395.84
2023-12-30T19:10:54.439Z,99399.16
2023-12-30T19:13:24.077Z,99405.75
2023-12-30T19:15:53.759Z,99402.19
2023-12-30T19:18:22.872Z,99396.94
2023-12-30T19:20:53.778Z,99404.13
2023-12-30T19:23:23.484Z,99406.59
2023-12-30T19:25:54.345Z,99405.47
2023-12-30T19:28:24.208Z,99400.81
2023-12-30T19:30:55.250Z,99408.78
2023-12-30T19:33:23.993Z,99405.75
2023-12-30T19:35:53.717Z,99395.56
2023-12-30T19:38:22.546Z,99409.84
2023-12-30T19:40:54.486Z,99403.00
2023-12-30T19:43:24.278Z,99406.56
2023-12-30T19:45:54.777Z,99399.94
2023-12-30T19:48:26.242Z,99401.59
2023-12-30T19:50:55.660Z,99396.06
2023-12-30T19:53:24.044Z,99391.38
2023-12-30T19:55:55.585Z,99397.97
2023-12-30T19:58:25.868Z,99391.38
2023-12-30T20:00:54.973Z,99396.84
2023-12-30T20:03:26.443Z,99398.47
2023-12-30T20:05:56.494Z,99399.28
2023-12-30T20:08:26.147Z,99402.81
2023-12-30T20:10:56.442Z,99395.34
2023-12-30T20:13:26.481Z,99392.88
2023-12-30T20:15:55.133Z,99389.84
2023-12-30T20:18:24.802Z,99392.03
2023-12-30T20:20:54.818Z,99392.31
2023-12-30T20:23:25.301Z,99393.66
2023-12-30T20:25:57.367Z,99392.56
2023-12-30T20:28:28.124Z,99385.66
2023-12-30T20:30:58.623Z,99390.59
2023-12-30T20:33:29.325Z,99395.56
2023-12-30T20:36:00.183Z,99401.56
2023-12-30T20:38:30.734Z,99397.72
2023-12-30T20:41:03.453Z,99395.78
2023-12-30T20:43:34.167Z,99397.97
2023-12-30T20:46:06.063Z,99385.25
2023-12-30T20:48:37.945Z,99390.22
2023-12-30T20:51:10.754Z,99395.16
2023-12-30T20:53:43.945Z,99389.63
2023-12-30T20:56:16.001Z,99388.22
2023-12-30T20:58:46.684Z,99388.50
2023-12-30T21:01:15.139Z,99386.84
2023-12-30T21:03:44.173Z,99376.13
2023-12-30T21:06:12.713Z,99376.41
2023-12-30T21:08:43.506Z,99371.41
2023-12-30T21:11:13.301Z,99371.94
2023-12-30T21:13:42.497Z,99375.78
2023-12-30T21:16:10.938Z,99378.00
2023-12-30T21:18:39.352Z,99377.16
2023-12-30T21:21:07.741Z,99373.00
2023-12-30T21:23:36.084Z,99376.59
2023-12-30T21:26:05.591Z,99372.19
2023-12-30T21:28:36.409Z,99374.38
2023-12-30T21:31:06.489Z,99369.16
2023-12-30T21:33:34.990Z,99368.31
2023-12-30T21:36:06.896Z,99371.59
2023-12-30T21:38:36.683Z,99357.81
2023-12-30T21:41:06.474Z,99362.75
2023-12-30T21:43:36.297Z,99369.34
2023-12-30T21:46:05.300Z,99365.22
2023-12-30T21:48:34.352Z,99365.72
2023-12-30T21:51:02.731Z,99365.44
2023-12-30T21:53:31.086Z,99371.72
2023-12-30T21:55:59.412Z,99367.03
2023-12-30T21:58:27.914Z,99368.63
2023-12-30T22:00:57.766Z,99363.09
2023-12-30T22:03:26.291Z,99360.03
2023-12-30T22:05:54.713Z,99358.66
2023-12-30T22:08:23.149Z,99360.00
2023-12-30T22:10:50.714Z,99359.72
2023-12-30T22:13:19.120Z,99369.28
2023-12-30T22:15:47.542Z,99360.50
2023-12-30T22:18:17.385Z,99354.16
2023-12-30T22:20:45.943Z,99359.66
2023-12-30T22:23:14.368Z,99358.00
2023-12-30T22:25:44.083Z,99360.19
2023-12-30T22:28:12.642Z,99356.63
2023-12-30T22:30:41.541Z,99356.88
2023-12-30T22:33:10.411Z,99356.03
2023-12-30T22:35:40.364Z,99346.97
2023-12-30T22:38:08.880Z,99350.31
2023-12-30T22:40:37.342Z,99346.44
2023-12-30T22:43:06.465Z,99349.19
2023-12-30T22:45:37.835Z,99348.41
2023-12-30T22:48:07.864Z,99340.97
2023-12-30T22:50:36.264Z,99334.69
2023-12-30T22:53:06.631Z,99336.81
2023-12-30T22:55:35.611Z,99330.75
2023-12-30T22:58:04.119Z,99331.28
2023-12-30T23:00:35.269Z,99323.56
2023-12-30T23:03:04.404Z,99326.00
2023-12-30T23:05:32.986Z,99320.22
2023-12-30T23:08:00.638Z,99329.78
2023-12-30T23:10:30.828Z,99322.91
2023-12-30T23:13:01.526Z,99323.44
2023-12-30T23:15:31.339Z,99316.56
2023-12-30T23:18:00.375Z,99323.13
2023-12-30T23:20:28.937Z,99314.34
2023-12-30T23:22:57.310Z,99319.25
2023-12-30T23:25:25.882Z,99313.44
2023-12-30T23:27:55.657Z,99320.88
2023-12-30T23:30:24.097Z,99308.22
2023-12-30T23:32:52.482Z,99309.31
2023-12-30T23:35:20.992Z,99308.75
2023-12-30T23:37:49.492Z,99304.38
2023-12-30T23:40:18.157Z,99305.44
2023-12-30T23:42:46.541Z,99302.69
2023-12-30T23:45:17.558Z,99289.25
2023-12-30T23:47:46.012Z,99284.00
2023-12-30T23:50:15.209Z,99278.22
2023-12-30T23:52:43.690Z,99282.03
2023-12-30T23:55:12.118Z,99275.19
2023-12-30T23:57:41.337Z,99273.53
